Time;durP1;ratioP1;P1;durP2;ratioP2;P2;SDS_P1;SDS_P2;PMS_P1;PMS_P2;Temp;Humidity;BMP_temperature;BMP_pressure;BME280_temperature;BME280_humidity;BME280_pressure;Samples;Min_cycle;Max_cycle;Signal;HPM_P1;HPM_P2
2021/01/27 00:02:10;;;;;;;4.35;3.30;;;2.70;99.90;;;;;;5070873;28;20450;-53
2021/01/27 00:04:36;;;;;;;5.90;3.85;;;2.60;99.90;;;;;;5068335;28;20229;-53
2021/01/27 00:07:02;;;;;;;4.10;3.40;;;2.20;99.90;;;;;;5070441;28;20213;-53
2021/01/27 00:09:29;;;;;;;4.38;3.97;;;2.50;99.90;;;;;;5077823;28;20271;-53
2021/01/27 00:11:55;;;;;;;4.60;3.97;;;2.50;99.90;;;;;;5084987;28;20651;-52
2021/01/27 00:14:21;;;;;;;3.90;3.60;;;2.60;99.90;;;;;;5068794;28;20213;-53
2021/01/27 00:16:47;;;;;;;4.23;3.83;;;2.60;99.90;;;;;;5085504;28;20184;-53
2021/01/27 00:19:12;;;;;;;6.10;4.33;;;2.60;99.90;;;;;;5084938;28;20185;-53
2021/01/27 00:21:38;;;;;;;5.20;4.00;;;3.00;99.90;;;;;;5059021;28;20235;-54
2021/01/27 00:24:04;;;;;;;4.90;3.85;;;2.80;99.90;;;;;;5062004;28;20205;-53
2021/01/27 00:26:30;;;;;;;4.63;4.13;;;2.70;99.90;;;;;;5067394;28;20323;-52
2021/01/27 00:28:55;;;;;;;5.83;4.40;;;2.70;99.90;;;;;;5064057;28;20946;-53
2021/01/27 00:31:21;;;;;;;4.43;3.70;;;2.90;99.90;;;;;;5067383;28;20238;-54
2021/01/27 00:33:47;;;;;;;5.23;4.10;;;2.90;99.90;;;;;;5069416;28;20612;-53
2021/01/27 00:36:12;;;;;;;8.13;4.20;;;2.60;99.90;;;;;;5065099;28;20682;-53
2021/01/27 00:38:38;;;;;;;5.57;3.70;;;2.70;99.90;;;;;;5069715;28;20427;-52
2021/01/27 00:41:04;;;;;;;6.70;3.93;;;3.00;99.90;;;;;;5070678;28;20185;-53
2021/01/27 00:43:29;;;;;;;5.50;4.03;;;2.80;99.90;;;;;;5069335;28;20690;-53
2021/01/27 00:45:55;;;;;;;4.67;4.20;;;2.90;99.90;;;;;;5065649;28;20730;-53
2021/01/27 00:48:22;;;;;;;5.57;4.33;;;2.80;99.90;;;;;;5070133;28;20564;-54
2021/01/27 00:50:48;;;;;;;4.63;4.22;;;2.90;99.90;;;;;;5065878;28;20435;-53
2021/01/27 00:53:13;;;;;;;4.37;3.97;;;3.00;99.90;;;;;;5069338;28;20751;-53
2021/01/27 00:55:39;;;;;;;4.40;3.43;;;2.70;99.90;;;;;;5065998;28;20263;-53
2021/01/27 00:58:05;;;;;;;4.43;4.03;;;2.80;99.90;;;;;;5071245;28;20431;-53
2021/01/27 01:00:33;;;;;;;5.60;3.87;;;2.90;99.90;;;;;;5076891;28;20249;-54
2021/01/27 01:02:59;;;;;;;5.35;4.57;;;2.80;99.90;;;;;;5069355;28;20487;-52
2021/01/27 01:05:30;;;;;;;6.27;4.67;;;3.00;99.90;;;;;;5075301;28;20208;-53
2021/01/27 01:07:57;;;;;;;5.90;4.95;;;2.80;99.90;;;;;;5069112;28;20216;-52
2021/01/27 01:10:26;;;;;;;8.65;5.40;;;2.70;99.90;;;;;;5069386;28;20311;-53
2021/01/27 01:12:53;;;;;;;7.80;5.30;;;2.90;99.90;;;;;;5068946;28;20197;-53
2021/01/27 01:15:20;;;;;;;5.60;5.00;;;2.50;99.90;;;;;;5068627;28;20196;-53
2021/01/27 01:17:45;;;;;;;7.88;5.40;;;2.50;99.90;;;;;;5069982;28;20642;-53
2021/01/27 01:20:15;;;;;;;5.07;4.50;;;2.70;99.90;;;;;;5069403;28;20275;-53
2021/01/27 01:22:46;;;;;;;7.93;5.88;;;2.70;99.90;;;;;;5074475;28;20261;-52
2021/01/27 01:25:13;;;;;;;5.82;5.20;;;3.00;99.90;;;;;;5066053;28;20244;-53
2021/01/27 01:27:39;;;;;;;6.32;5.10;;;2.80;99.90;;;;;;5061063;28;20177;-52
2021/01/27 01:30:18;;;;;;;5.60;4.90;;;2.90;99.90;;;;;;5068820;28;20184;-53
2021/01/27 01:32:44;;;;;;;5.82;5.03;;;3.00;99.90;;;;;;5066979;28;20176;-53
2021/01/27 01:35:12;;;;;;;6.38;5.43;;;2.80;99.90;;;;;;5068366;28;20235;-52
2021/01/27 01:37:38;;;;;;;5.97;5.13;;;2.80;99.90;;;;;;5063606;28;20658;-53
2021/01/27 01:40:08;;;;;;;6.45;5.20;;;2.80;99.90;;;;;;5075795;28;20245;-52
2021/01/27 01:42:34;;;;;;;7.05;5.00;;;2.80;99.90;;;;;;5071885;28;20284;-53
2021/01/27 01:45:00;;;;;;;8.97;5.33;;;2.60;99.90;;;;;;5068138;28;20268;-53
2021/01/27 01:47:26;;;;;;;5.32;4.82;;;2.90;99.90;;;;;;5069240;28;20193;-53
2021/01/27 01:49:54;;;;;;;5.23;4.73;;;2.70;99.90;;;;;;5088402;28;20203;-53
2021/01/27 01:52:20;;;;;;;5.78;4.95;;;2.90;99.90;;;;;;5070192;28;20185;-53
2021/01/27 01:54:57;;;;;;;7.10;5.05;;;3.00;99.90;;;;;;5068721;28;20208;-52
2021/01/27 01:57:25;;;;;;;5.55;5.05;;;2.70;99.90;;;;;;5058977;28;20652;-52
2021/01/27 02:00:11;;;;;;;6.40;4.82;;;2.60;99.90;;;;;;5088526;28;20275;-53
2021/01/27 02:02:37;;;;;;;5.95;4.78;;;2.70;99.90;;;;;;5061618;28;20187;-53
2021/01/27 02:05:14;;;;;;;6.07;5.40;;;3.00;99.90;;;;;;5080762;28;20676;-53
2021/01/27 02:07:41;;;;;;;5.95;5.35;;;2.90;99.90;;;;;;5088670;28;20184;-53
2021/01/27 02:10:08;;;;;;;5.75;4.50;;;2.70;99.90;;;;;;5088463;28;20402;-53
2021/01/27 02:12:40;;;;;;;6.10;4.25;;;2.90;99.90;;;;;;5072832;28;20219;-53
2021/01/27 02:15:09;;;;;;;5.00;4.40;;;2.90;99.90;;;;;;5067727;28;20684;-53
2021/01/27 02:17:47;;;;;;;8.10;4.93;;;3.00;99.90;;;;;;5061942;28;20198;-52
2021/01/27 02:21:12;;;;;;;6.57;4.75;;;2.80;99.90;;;;;;5067662;28;20172;-53
2021/01/27 02:23:56;;;;;;;6.20;4.28;;;3.00;99.90;;;;;;5046215;28;20583;-53
2021/01/27 02:26:43;;;;;;;4.90;4.35;;;2.80;99.90;;;;;;5065986;28;20211;-53
2021/01/27 02:29:44;;;;;;;5.68;5.07;;;2.90;99.90;;;;;;5078936;28;20201;-52
2021/01/27 02:32:57;;;;;;;6.88;4.93;;;3.00;99.90;;;;;;5072015;28;20279;-52
2021/01/27 02:35:23;;;;;;;5.00;4.25;;;2.80;99.90;;;;;;5036553;28;20181;-53
2021/01/27 02:38:04;;;;;;;8.00;4.67;;;2.90;99.90;;;;;;5075691;28;20196;-54
2021/01/27 02:40:44;;;;;;;6.68;5.38;;;2.90;99.90;;;;;;5066757;28;20284;-53
2021/01/27 02:43:28;;;;;;;6.60;4.88;;;2.50;99.90;;;;;;5068453;28;20212;-53
2021/01/27 02:46:02;;;;;;;7.82;5.25;;;2.60;99.90;;;;;;5077724;28;20208;-53
2021/01/27 02:48:52;;;;;;;5.00;4.30;;;2.70;99.90;;;;;;5092335;28;20661;-54
2021/01/27 02:51:23;;;;;;;6.10;4.82;;;2.50;99.90;;;;;;5071144;28;20741;-52
2021/01/27 02:54:23;;;;;;;8.32;6.00;;;2.50;99.90;;;;;;5071169;28;20205;-54
2021/01/27 02:57:13;;;;;;;6.40;4.47;;;2.70;99.90;;;;;;5029270;28;20208;-53
2021/01/27 03:00:00;;;;;;;7.03;5.40;;;2.20;99.90;;;;;;5083236;28;20173;-53
2021/01/27 03:02:51;;;;;;;5.93;5.20;;;2.50;99.90;;;;;;5073816;28;20331;-53
2021/01/27 03:05:19;;;;;;;7.00;4.60;;;2.60;99.90;;;;;;5081629;28;20212;-52
2021/01/27 03:07:58;;;;;;;5.55;4.75;;;2.50;99.90;;;;;;5085250;28;20204;-53
2021/01/27 03:10:31;;;;;;;5.97;4.88;;;2.10;99.90;;;;;;5068745;28;20709;-53
2021/01/27 03:12:57;;;;;;;5.57;5.07;;;2.50;99.90;;;;;;5071491;28;20212;-53
2021/01/27 03:15:22;;;;;;;6.00;4.90;;;2.50;99.90;;;;;;5082847;28;20192;-53
2021/01/27 03:17:56;;;;;;;5.37;4.80;;;2.80;99.90;;;;;;5070837;28;20849;-56
2021/01/27 03:20:32;;;;;;;5.47;4.53;;;2.40;99.90;;;;;;5070639;28;20441;-54
2021/01/27 03:23:26;;;;;;;5.65;5.15;;;2.60;99.90;;;;;;5065352;28;20208;-54
2021/01/27 03:25:55;;;;;;;6.20;4.93;;;2.60;99.90;;;;;;5071097;28;20291;-53
2021/01/27 03:28:43;;;;;;;6.78;5.45;;;2.50;99.90;;;;;;5069553;28;20543;-53
2021/01/27 03:31:10;;;;;;;5.85;5.22;;;2.70;99.90;;;;;;5066867;28;20246;-53
2021/01/27 03:33:48;;;;;;;7.25;5.30;;;2.70;99.90;;;;;;5084737;28;20356;-52
2021/01/27 03:36:15;;;;;;;6.60;5.28;;;2.70;99.90;;;;;;5059677;28;20189;-53
2021/01/27 03:38:50;;;;;;;5.05;4.15;;;2.80;99.90;;;;;;5091066;28;20188;-53
2021/01/27 03:41:31;;;;;;;5.40;4.32;;;2.80;99.90;;;;;;5088218;28;20674;-52
2021/01/27 03:44:15;;;;;;;5.95;4.90;;;2.70;99.90;;;;;;5082912;28;20208;-53
2021/01/27 03:46:59;;;;;;;7.60;4.50;;;2.70;99.90;;;;;;5068620;28;20759;-53
2021/01/27 03:49:37;;;;;;;5.65;4.70;;;2.70;99.90;;;;;;5070812;28;20211;-53
2021/01/27 03:52:18;;;;;;;5.32;4.82;;;2.10;99.90;;;;;;5082125;28;20180;-52
2021/01/27 03:54:54;;;;;;;7.80;4.80;;;2.50;99.90;;;;;;5088889;28;20249;-53
2021/01/27 03:57:26;;;;;;;4.50;4.10;;;2.80;99.90;;;;;;5065283;28;20702;-55
2021/01/27 03:59:51;;;;;;;5.53;4.30;;;2.40;99.90;;;;;;5070908;28;20181;-53
2021/01/27 04:02:20;;;;;;;5.20;4.20;;;2.70;99.90;;;;;;5087432;28;20180;-53
2021/01/27 04:04:47;;;;;;;4.18;3.83;;;2.60;99.90;;;;;;5085327;28;20299;-54
2021/01/27 04:07:12;;;;;;;4.20;3.78;;;2.60;99.90;;;;;;5072525;28;20219;-53
2021/01/27 04:09:38;;;;;;;4.50;4.07;;;2.70;99.90;;;;;;5069280;28;20719;-53
2021/01/27 04:12:04;;;;;;;6.60;4.40;;;2.80;99.90;;;;;;5070951;28;20415;-53
2021/01/27 04:14:30;;;;;;;4.80;4.18;;;2.90;99.90;;;;;;5085176;28;20207;-52
2021/01/27 04:16:55;;;;;;;8.33;4.53;;;2.70;99.90;;;;;;5064169;28;20185;-52
2021/01/27 04:19:21;;;;;;;5.13;3.97;;;2.70;99.90;;;;;;5071410;28;20189;-53
2021/01/27 04:21:47;;;;;;;8.07;4.53;;;2.70;99.90;;;;;;5070285;28;20181;-53
2021/01/27 04:24:12;;;;;;;7.37;4.80;;;2.80;99.90;;;;;;5085333;28;20212;-53
2021/01/27 04:26:38;;;;;;;5.43;4.03;;;2.60;99.90;;;;;;5068559;28;20217;-52
2021/01/27 04:29:04;;;;;;;5.77;4.43;;;2.90;99.90;;;;;;5070672;28;20246;-52
2021/01/27 04:31:30;;;;;;;4.93;4.18;;;2.70;99.90;;;;;;5068847;28;20196;-53
2021/01/27 04:33:56;;;;;;;4.63;4.20;;;2.80;99.90;;;;;;5090172;28;20219;-55
2021/01/27 04:36:22;;;;;;;4.80;3.27;;;2.60;99.90;;;;;;5069083;28;20655;-53
2021/01/27 04:38:50;;;;;;;4.63;4.22;;;2.80;99.90;;;;;;5070112;28;20529;-52
2021/01/27 04:41:16;;;;;;;6.35;4.15;;;2.90;99.90;;;;;;5070432;28;20180;-53
2021/01/27 04:43:45;;;;;;;4.38;3.75;;;2.90;99.90;;;;;;5070023;28;20362;-54
2021/01/27 04:46:27;;;;;;;3.75;3.35;;;2.90;99.90;;;;;;5069998;28;20285;-54
2021/01/27 04:48:56;;;;;;;4.53;3.83;;;3.00;99.90;;;;;;5083659;28;20584;-53
2021/01/27 04:51:37;;;;;;;3.53;3.20;;;2.80;99.90;;;;;;5065743;28;20186;-53
2021/01/27 04:54:18;;;;;;;3.20;2.90;;;3.00;99.90;;;;;;5067443;28;20652;-53
2021/01/27 04:57:06;;;;;;;4.70;3.95;;;3.10;99.90;;;;;;5067558;28;20223;-53
2021/01/27 04:59:52;;;;;;;4.90;3.38;;;3.10;99.90;;;;;;5058590;28;20674;-54
2021/01/27 05:02:39;;;;;;;5.65;3.90;;;3.00;99.90;;;;;;5069095;28;20498;-53
2021/01/27 05:05:12;;;;;;;4.55;3.92;;;3.10;99.90;;;;;;5061788;28;20189;-55
2021/01/27 05:07:40;;;;;;;4.40;4.05;;;2.90;99.90;;;;;;5068110;28;20180;-52
2021/01/27 05:10:09;;;;;;;4.32;3.97;;;3.00;99.90;;;;;;5075688;28;20188;-54
2021/01/27 05:12:48;;;;;;;4.57;3.95;;;3.00;99.90;;;;;;5068228;28;20190;-53
2021/01/27 05:15:15;;;;;;;6.38;3.90;;;3.00;99.90;;;;;;5070966;28;20186;-53
2021/01/27 05:17:43;;;;;;;3.40;3.10;;;2.90;99.90;;;;;;5059514;28;20208;-53
2021/01/27 05:20:14;;;;;;;3.80;3.45;;;2.80;99.90;;;;;;5086166;28;20184;-53
2021/01/27 05:22:40;;;;;;;3.25;2.88;;;2.70;99.90;;;;;;5071620;28;20184;-53
2021/01/27 05:25:11;;;;;;;3.50;3.20;;;3.30;99.90;;;;;;5076818;28;20178;-53
2021/01/27 05:27:37;;;;;;;3.58;3.28;;;3.40;99.90;;;;;;5067496;28;20201;-53
2021/01/27 05:30:30;;;;;;;3.30;3.00;;;3.40;99.90;;;;;;5065837;28;20280;-52
2021/01/27 05:32:57;;;;;;;5.15;3.53;;;3.30;99.90;;;;;;5061129;28;20640;-54
2021/01/27 05:35:33;;;;;;;3.88;3.42;;;3.50;99.90;;;;;;5066019;28;20238;-53
2021/01/27 05:38:16;;;;;;;3.50;3.00;;;3.10;99.90;;;;;;5061406;28;20180;-53
2021/01/27 05:40:41;;;;;;;5.68;3.28;;;3.40;99.90;;;;;;5078727;28;20651;-52
2021/01/27 05:43:25;;;;;;;4.60;3.70;;;3.20;99.90;;;;;;5062564;28;20255;-53
2021/01/27 05:45:54;;;;;;;4.20;3.40;;;3.20;99.90;;;;;;5056273;28;20752;-53
2021/01/27 05:48:35;;;;;;;3.95;3.08;;;3.20;99.90;;;;;;5057987;28;20235;-53
2021/01/27 05:51:01;;;;;;;6.07;3.63;;;3.20;99.90;;;;;;5051964;28;20603;-52
2021/01/27 05:53:29;;;;;;;4.23;3.33;;;3.10;99.90;;;;;;5058553;28;20224;-53
2021/01/27 05:56:21;;;;;;;3.70;3.40;;;3.20;99.90;;;;;;5068136;28;20224;-53
2021/01/27 05:58:56;;;;;;;4.15;3.35;;;3.10;99.90;;;;;;5061246;28;20640;-51
2021/01/27 06:01:47;;;;;;;4.20;3.13;;;3.30;99.90;;;;;;5059296;28;20221;-52
2021/01/27 06:04:12;;;;;;;8.60;5.93;;;3.10;99.90;;;;;;5057266;28;20231;-53
2021/01/27 06:06:47;;;;;;;3.53;3.23;;;3.00;99.90;;;;;;5062404;28;20209;-53
2021/01/27 06:09:14;;;;;;;6.55;2.90;;;3.00;99.90;;;;;;5055958;28;20878;-53
2021/01/27 06:11:40;;;;;;;4.28;3.80;;;3.20;99.90;;;;;;5053023;28;20181;-52
2021/01/27 06:14:11;;;;;;;4.10;2.90;;;3.70;99.90;;;;;;5059096;28;20217;-52
2021/01/27 06:16:46;;;;;;;4.00;3.08;;;3.00;99.90;;;;;;5057879;28;20708;-51
2021/01/27 06:19:20;;;;;;;3.35;2.85;;;3.00;99.90;;;;;;5059986;28;20216;-53
2021/01/27 06:21:48;;;;;;;3.15;2.85;;;3.10;99.90;;;;;;5057052;28;20208;-54
2021/01/27 06:24:35;;;;;;;3.78;2.90;;;3.10;99.90;;;;;;5060118;28;20304;-53
2021/01/27 06:27:19;;;;;;;6.72;3.67;;;3.00;99.90;;;;;;5059463;28;20714;-52
2021/01/27 06:30:06;;;;;;;4.05;3.15;;;2.90;99.90;;;;;;5057352;28;20196;-53
2021/01/27 06:33:06;;;;;;;5.40;3.13;;;3.20;99.90;;;;;;5062538;28;20741;-52
2021/01/27 06:36:03;;;;;;;3.55;3.25;;;3.30;99.90;;;;;;5052941;28;20342;-54
2021/01/27 06:38:48;;;;;;;3.67;2.80;;;3.00;99.90;;;;;;5058907;28;20706;-54
2021/01/27 06:41:26;;;;;;;3.20;2.90;;;3.20;99.90;;;;;;5065877;28;20185;-53
2021/01/27 06:44:01;;;;;;;3.20;2.90;;;3.00;99.90;;;;;;5070401;28;20257;-52
2021/01/27 06:46:27;;;;;;;3.92;3.45;;;3.20;99.90;;;;;;5061472;28;20220;-53
2021/01/27 06:49:15;;;;;;;4.30;2.90;;;3.10;99.90;;;;;;5059941;28;20544;-54
2021/01/27 06:51:58;;;;;;;5.75;3.72;;;3.30;99.90;;;;;;5049273;28;20174;-53
2021/01/27 06:54:46;;;;;;;5.00;3.10;;;3.10;99.90;;;;;;5065972;28;20200;-53
2021/01/27 06:57:24;;;;;;;3.10;2.90;;;3.30;99.90;;;;;;5075982;28;20191;-53
2021/01/27 07:00:29;;;;;;;3.65;3.03;;;3.20;99.90;;;;;;5057143;28;20465;-53
2021/01/27 07:03:21;;;;;;;3.55;2.90;;;3.20;99.80;;;;;;5051078;28;20288;-54
2021/01/27 07:06:04;;;;;;;3.40;3.00;;;3.50;99.90;;;;;;5050483;28;20368;-53
2021/01/27 07:09:15;;;;;;;5.78;3.40;;;3.20;99.80;;;;;;5065803;28;20239;-53
2021/01/27 07:12:03;;;;;;;3.78;3.47;;;3.50;99.90;;;;;;5028312;28;20268;-53
2021/01/27 07:14:28;;;;;;;3.35;2.88;;;3.30;99.90;;;;;;5025275;28;20220;-53
2021/01/27 07:16:54;;;;;;;3.50;3.20;;;3.20;99.90;;;;;;5045234;28;20862;-54
2021/01/27 07:19:38;;;;;;;7.80;3.20;;;3.60;99.70;;;;;;5065626;28;20189;-53
2021/01/27 07:22:14;;;;;;;5.22;3.40;;;3.50;99.70;;;;;;5055871;28;20184;-54
2021/01/27 07:24:48;;;;;;;4.72;3.35;;;3.40;99.40;;;;;;5058540;28;20242;-53
2021/01/27 07:27:21;;;;;;;5.45;3.35;;;3.50;99.70;;;;;;5058542;28;20209;-54
2021/01/27 07:30:05;;;;;;;3.20;2.88;;;3.30;99.70;;;;;;5066246;28;20268;-53
2021/01/27 07:32:41;;;;;;;5.13;3.45;;;3.60;99.20;;;;;;5065150;28;20184;-53
2021/01/27 07:35:29;;;;;;;4.18;2.80;;;3.50;99.40;;;;;;5061687;28;20204;-53
2021/01/27 07:38:04;;;;;;;5.50;3.20;;;3.40;99.10;;;;;;5063975;28;20177;-54
2021/01/27 07:40:32;;;;;;;3.20;2.90;;;3.40;99.50;;;;;;5066691;28;20176;-53
2021/01/27 07:43:11;;;;;;;3.95;3.45;;;3.70;99.40;;;;;;5067787;28;20240;-53
2021/01/27 07:45:39;;;;;;;3.65;2.97;;;3.50;99.00;;;;;;5065572;28;20198;-54
2021/01/27 07:48:10;;;;;;;3.85;3.50;;;3.40;99.20;;;;;;5070136;28;20583;-58
2021/01/27 07:50:38;;;;;;;4.35;2.85;;;3.80;99.90;;;;;;5060389;28;20245;-54
2021/01/27 07:53:25;;;;;;;4.60;2.97;;;3.70;99.90;;;;;;5055285;28;20373;-53
2021/01/27 07:55:59;;;;;;;3.65;3.35;;;3.70;99.90;;;;;;5061030;28;20678;-52
2021/01/27 07:58:28;;;;;;;2.67;2.45;;;3.60;99.90;;;;;;5066211;28;20185;-52
2021/01/27 08:01:05;;;;;;;3.80;3.38;;;3.70;99.90;;;;;;5070069;28;20860;-54
2021/01/27 08:03:37;;;;;;;3.38;2.75;;;3.60;99.90;;;;;;5068694;28;20238;-54
2021/01/27 08:06:10;;;;;;;3.65;3.03;;;3.70;99.90;;;;;;5058080;28;20210;-55
2021/01/27 08:08:45;;;;;;;5.50;4.35;;;3.40;99.90;;;;;;5060929;28;20609;-53
2021/01/27 08:11:15;;;;;;;3.10;2.65;;;3.60;99.90;;;;;;5060152;28;20271;-55
2021/01/27 08:13:43;;;;;;;4.70;2.92;;;2.80;99.90;;;;;;5065194;28;20209;-55
2021/01/27 08:16:34;;;;;;;2.85;2.65;;;3.10;99.90;;;;;;5067660;28;20626;-54
2021/01/27 08:19:11;;;;;;;3.90;2.50;;;3.30;99.90;;;;;;5063327;28;20198;-53
2021/01/27 08:21:46;;;;;;;5.10;2.90;;;3.30;99.90;;;;;;5068919;28;20196;-55
2021/01/27 08:24:37;;;;;;;3.85;3.00;;;3.10;99.90;;;;;;5066792;28;20204;-53
2021/01/27 08:27:09;;;;;;;3.58;2.58;;;3.40;99.90;;;;;;5068883;28;20630;-54
2021/01/27 08:29:36;;;;;;;4.70;2.70;;;3.50;99.90;;;;;;5065962;28;20170;-52
2021/01/27 08:32:43;;;;;;;3.72;2.75;;;3.30;99.90;;;;;;5060373;28;20200;-52
2021/01/27 08:35:32;;;;;;;4.47;2.50;;;3.20;99.90;;;;;;5006653;28;20218;-55
2021/01/27 08:38:21;;;;;;;3.90;3.17;;;3.20;99.90;;;;;;5024305;28;20174;-53
2021/01/27 08:40:47;;;;;;;2.95;2.65;;;3.20;99.90;;;;;;5049631;28;20324;-54
2021/01/27 08:43:15;;;;;;;4.50;3.50;;;3.20;99.90;;;;;;5073948;28;20727;-53
2021/01/27 08:45:43;;;;;;;3.15;2.83;;;3.40;99.90;;;;;;5080428;28;20862;-54
2021/01/27 08:48:09;;;;;;;4.30;2.72;;;3.40;99.90;;;;;;5061869;28;20190;-54
2021/01/27 08:50:54;;;;;;;3.53;3.23;;;3.10;99.90;;;;;;5065131;28;20187;-53
2021/01/27 08:53:22;;;;;;;2.85;2.65;;;2.80;99.90;;;;;;5057163;28;20292;-53
2021/01/27 08:55:50;;;;;;;3.35;3.05;;;3.00;99.90;;;;;;5056964;28;20640;-54
2021/01/27 08:58:16;;;;;;;3.75;2.75;;;3.10;99.90;;;;;;5056484;28;20212;-54
2021/01/27 09:00:43;;;;;;;5.00;3.23;;;3.10;99.90;;;;;;5061683;28;20855;-53
2021/01/27 09:03:29;;;;;;;3.35;3.05;;;3.10;99.90;;;;;;5056789;28;20213;-54
2021/01/27 09:05:57;;;;;;;3.42;3.08;;;3.30;99.90;;;;;;5064281;28;20212;-54
2021/01/27 09:08:27;;;;;;;4.00;3.63;;;3.40;99.90;;;;;;5059198;28;20466;-53
2021/01/27 09:11:00;;;;;;;4.20;3.35;;;3.20;99.90;;;;;;5063361;28;20186;-54
2021/01/27 09:13:40;;;;;;;4.70;4.05;;;2.90;99.90;;;;;;5054699;28;20336;-53
2021/01/27 09:16:19;;;;;;;3.97;3.47;;;3.10;99.90;;;;;;5059182;28;20612;-52
2021/01/27 09:18:53;;;;;;;3.53;3.22;;;3.20;99.90;;;;;;5059784;28;20185;-53
2021/01/27 09:21:20;;;;;;;6.85;4.30;;;3.20;99.90;;;;;;5057200;28;20646;-53
2021/01/27 09:23:56;;;;;;;4.10;3.70;;;3.30;99.90;;;;;;5062313;28;20201;-53
2021/01/27 09:26:32;;;;;;;8.95;4.10;;;3.00;99.90;;;;;;5060715;28;20216;-54
2021/01/27 09:29:10;;;;;;;4.97;3.88;;;3.20;99.90;;;;;;5064530;28;20184;-53
2021/01/27 09:31:36;;;;;;;4.38;3.97;;;2.80;99.90;;;;;;5064259;28;20185;-53
2021/01/27 09:34:29;;;;;;;5.17;3.90;;;2.90;99.90;;;;;;5060554;28;20599;-53
2021/01/27 09:37:12;;;;;;;5.45;4.15;;;3.10;99.90;;;;;;5060937;28;20383;-53
2021/01/27 09:39:41;;;;;;;5.50;4.00;;;3.00;99.90;;;;;;5073117;28;20192;-54
2021/01/27 09:42:28;;;;;;;5.00;4.00;;;3.00;99.90;;;;;;5054246;28;20203;-54
2021/01/27 09:45:06;;;;;;;5.13;4.22;;;2.80;99.90;;;;;;5071224;28;20913;-54
2021/01/27 09:47:33;;;;;;;7.90;4.43;;;3.10;99.90;;;;;;5065719;28;20258;-53
2021/01/27 09:50:01;;;;;;;5.95;4.45;;;2.90;99.90;;;;;;5063448;28;20185;-54
2021/01/27 09:52:28;;;;;;;7.45;4.45;;;2.70;99.90;;;;;;5065108;28;20181;-52
2021/01/27 09:54:59;;;;;;;4.55;3.63;;;2.80;99.90;;;;;;5065276;28;20201;-52
2021/01/27 09:57:26;;;;;;;6.35;3.40;;;2.90;99.90;;;;;;5057086;28;20181;-52
2021/01/27 09:59:55;;;;;;;3.85;3.40;;;3.00;99.90;;;;;;5055087;28;20197;-52
2021/01/27 10:02:30;;;;;;;5.32;3.80;;;3.10;99.90;;;;;;5062981;28;21409;-55
2021/01/27 10:04:56;;;;;;;3.20;2.88;;;3.00;99.90;;;;;;5055157;28;20262;-53
2021/01/27 10:07:24;;;;;;;4.90;3.23;;;2.80;99.90;;;;;;5066188;28;20451;-52
2021/01/27 10:10:13;;;;;;;4.15;3.50;;;2.90;99.90;;;;;;5072934;28;20184;-53
2021/01/27 10:12:39;;;;;;;4.22;3.25;;;3.00;99.90;;;;;;5067142;28;20261;-53
2021/01/27 10:15:24;;;;;;;3.92;3.08;;;2.70;99.90;;;;;;5067034;28;20246;-53
2021/01/27 10:18:02;;;;;;;3.13;2.55;;;2.80;99.90;;;;;;5072301;28;20180;-52
2021/01/27 10:20:30;;;;;;;5.93;3.10;;;2.90;99.90;;;;;;5059092;28;20228;-52
2021/01/27 10:23:51;;;;;;;6.13;3.60;;;3.10;99.90;;;;;;5060297;28;20211;-52
2021/01/27 10:26:29;;;;;;;4.20;3.67;;;2.90;99.90;;;;;;5046978;28;20221;-52
2021/01/27 10:29:17;;;;;;;20.33;9.30;;;3.00;99.90;;;;;;5059585;28;20189;-52
2021/01/27 10:31:55;;;;;;;7.28;3.75;;;2.80;99.90;;;;;;5060404;28;20177;-52
2021/01/27 10:34:50;;;;;;;3.83;3.33;;;3.10;99.90;;;;;;5064738;28;20208;-52
2021/01/27 10:37:31;;;;;;;3.45;2.88;;;2.60;99.90;;;;;;5063100;28;20185;-54
2021/01/27 10:40:14;;;;;;;5.43;2.95;;;3.30;99.90;;;;;;5054234;28;20185;-53
2021/01/27 10:42:47;;;;;;;3.70;3.17;;;3.40;99.90;;;;;;5075976;28;20287;-53
2021/01/27 10:45:30;;;;;;;5.05;2.60;;;3.30;99.90;;;;;;5062034;28;20282;-53
2021/01/27 10:48:06;;;;;;;3.63;3.15;;;3.10;99.90;;;;;;5061317;28;20193;-54
2021/01/27 10:50:33;;;;;;;2.83;2.63;;;3.40;99.90;;;;;;5061870;28;20257;-53
2021/01/27 10:53:00;;;;;;;4.85;2.80;;;3.30;99.90;;;;;;5052462;28;20206;-53
2021/01/27 10:55:32;;;;;;;6.65;3.03;;;3.40;99.90;;;;;;5054876;28;20174;-54
2021/01/27 10:58:06;;;;;;;7.78;3.33;;;3.70;99.90;;;;;;5066504;28;20510;-52
2021/01/27 11:00:31;;;;;;;3.20;2.90;;;3.40;99.90;;;;;;5057229;28;20177;-57
2021/01/27 11:02:57;;;;;;;2.63;2.10;;;3.50;99.90;;;;;;5054000;28;20205;-54
2021/01/27 11:05:22;;;;;;;4.40;2.87;;;3.60;99.90;;;;;;5059669;28;20258;-55
2021/01/27 11:07:49;;;;;;;3.87;2.60;;;3.60;99.90;;;;;;5070363;28;20192;-53
2021/01/27 11:10:15;;;;;;;4.47;2.70;;;3.60;99.90;;;;;;5060538;28;20197;-52
2021/01/27 11:12:40;;;;;;;3.42;3.13;;;3.30;99.90;;;;;;5071691;28;20603;-52
2021/01/27 11:15:06;;;;;;;3.63;2.80;;;3.20;99.90;;;;;;5066334;28;20189;-53
2021/01/27 11:17:32;;;;;;;4.90;3.67;;;3.10;99.90;;;;;;5067365;28;20196;-53
2021/01/27 11:19:57;;;;;;;5.43;3.20;;;3.00;99.90;;;;;;5063547;28;20641;-53
2021/01/27 11:22:23;;;;;;;3.10;2.80;;;3.10;99.90;;;;;;5065922;28;20626;-54
2021/01/27 11:24:49;;;;;;;3.10;2.60;;;3.30;99.90;;;;;;5064708;28;20197;-53
2021/01/27 11:27:14;;;;;;;4.23;2.60;;;3.20;99.90;;;;;;5071784;28;20200;-52
2021/01/27 11:29:40;;;;;;;4.33;2.63;;;3.20;99.90;;;;;;5079325;28;20330;-52
2021/01/27 11:32:06;;;;;;;2.97;2.67;;;3.20;99.90;;;;;;5069649;28;20181;-53
2021/01/27 11:34:31;;;;;;;3.20;2.70;;;3.30;99.90;;;;;;5066023;28;20284;-54
2021/01/27 11:36:57;;;;;;;4.60;2.90;;;3.60;99.90;;;;;;5065849;28;20182;-52
2021/01/27 11:39:22;;;;;;;7.33;4.27;;;3.40;99.90;;;;;;5070484;28;20621;-54
2021/01/27 11:41:48;;;;;;;3.70;2.57;;;3.40;99.90;;;;;;5062477;28;20184;-53
2021/01/27 11:44:14;;;;;;;3.87;2.43;;;3.40;99.90;;;;;;5069734;28;20699;-52
2021/01/27 11:46:41;;;;;;;2.07;1.90;;;3.40;99.90;;;;;;5059864;28;20200;-52
2021/01/27 11:49:07;;;;;;;3.17;2.90;;;3.70;99.90;;;;;;5065680;28;20174;-53
2021/01/27 11:51:32;;;;;;;2.60;2.10;;;3.70;99.90;;;;;;5067273;28;20185;-53
2021/01/27 11:53:58;;;;;;;2.80;2.10;;;3.80;99.90;;;;;;5065784;28;20532;-53
2021/01/27 11:56:24;;;;;;;2.70;1.97;;;3.70;99.90;;;;;;5072743;28;20183;-54
2021/01/27 11:58:49;;;;;;;2.30;2.10;;;3.70;99.90;;;;;;5075505;28;20676;-54
2021/01/27 12:01:15;;;;;;;4.50;2.10;;;3.60;99.90;;;;;;5058527;28;20183;-55
2021/01/27 12:03:41;;;;;;;4.20;1.80;;;3.80;99.90;;;;;;5063626;28;20198;-53
2021/01/27 12:06:06;;;;;;;2.17;1.97;;;4.00;99.90;;;;;;5071503;28;20194;-53
2021/01/27 12:08:32;;;;;;;2.10;1.70;;;4.00;99.90;;;;;;5063909;28;20599;-53
2021/01/27 12:10:58;;;;;;;1.67;1.57;;;3.30;99.90;;;;;;5066358;28;20239;-54
2021/01/27 12:13:24;;;;;;;6.83;4.47;;;3.60;99.90;;;;;;5067325;28;20470;-55
2021/01/27 12:15:51;;;;;;;2.15;1.95;;;3.90;99.90;;;;;;5068769;28;20201;-54
2021/01/27 12:18:17;;;;;;;2.08;1.83;;;3.70;99.90;;;;;;5058860;28;20193;-52
2021/01/27 12:20:43;;;;;;;1.73;1.63;;;3.80;99.90;;;;;;5059575;28;20188;-54
2021/01/27 12:23:09;;;;;;;2.23;1.80;;;4.00;99.90;;;;;;5062972;28;20509;-54
2021/01/27 12:25:35;;;;;;;2.58;2.38;;;3.70;99.90;;;;;;5067352;28;20525;-53
2021/01/27 12:28:00;;;;;;;2.37;1.77;;;4.00;99.90;;;;;;5059351;28;20253;-53
2021/01/27 12:30:26;;;;;;;2.33;2.13;;;4.00;99.90;;;;;;5055897;28;20179;-54
2021/01/27 12:32:52;;;;;;;1.77;1.67;;;4.10;99.90;;;;;;5063832;28;20268;-54
2021/01/27 12:35:20;;;;;;;4.83;2.33;;;4.10;99.90;;;;;;5061116;28;20487;-54
2021/01/27 12:37:46;;;;;;;4.93;2.55;;;4.20;99.90;;;;;;5058320;28;20190;-59
2021/01/27 12:40:14;;;;;;;2.85;2.58;;;4.20;99.90;;;;;;5056384;28;20333;-54
2021/01/27 12:42:40;;;;;;;2.00;1.80;;;4.10;99.90;;;;;;5057769;28;20189;-53
2021/01/27 12:45:08;;;;;;;1.75;1.60;;;4.10;99.90;;;;;;5063565;28;20199;-53
2021/01/27 12:47:34;;;;;;;6.05;5.45;;;4.30;99.90;;;;;;5055084;28;20260;-54
2021/01/27 12:50:00;;;;;;;5.63;2.08;;;3.80;99.90;;;;;;5049987;28;20182;-53
2021/01/27 12:52:26;;;;;;;2.73;2.43;;;3.80;99.90;;;;;;5057864;28;20563;-53
2021/01/27 12:54:52;;;;;;;3.57;2.37;;;3.80;99.90;;;;;;5058988;28;20459;-52
2021/01/27 12:57:17;;;;;;;2.20;2.00;;;4.20;99.90;;;;;;5067701;28;20186;-53
2021/01/27 12:59:43;;;;;;;2.40;2.20;;;4.00;99.90;;;;;;5065125;28;20237;-54
2021/01/27 13:02:08;;;;;;;3.17;2.90;;;4.40;99.90;;;;;;5061417;28;20185;-53
2021/01/27 13:04:34;;;;;;;5.60;2.27;;;3.80;99.90;;;;;;5084683;28;20288;-54
2021/01/27 13:07:00;;;;;;;2.33;2.17;;;4.20;99.90;;;;;;5062811;28;20427;-53
2021/01/27 13:09:25;;;;;;;2.20;1.97;;;4.40;99.90;;;;;;5067876;28;20181;-54
2021/01/27 13:11:51;;;;;;;1.80;1.70;;;4.20;99.90;;;;;;5060840;28;20435;-54
2021/01/27 13:14:22;;;;;;;1.90;1.80;;;4.20;99.90;;;;;;5068350;28;20561;-54
2021/01/27 13:16:48;;;;;;;2.70;2.22;;;4.00;99.90;;;;;;5065271;28;20192;-54
2021/01/27 13:19:15;;;;;;;2.10;1.90;;;4.10;99.90;;;;;;5062852;28;20178;-53
2021/01/27 13:21:41;;;;;;;2.90;2.60;;;4.30;99.90;;;;;;5067071;28;20623;-54
2021/01/27 13:24:06;;;;;;;3.23;2.43;;;4.10;99.90;;;;;;5059561;28;20209;-53
2021/01/27 13:26:32;;;;;;;2.67;2.47;;;4.40;99.90;;;;;;5068178;28;20738;-53
2021/01/27 13:28:58;;;;;;;2.33;1.93;;;4.30;99.90;;;;;;5073535;28;20491;-53